sensor_id;sensor_type;location;lat;lon;timestamp;pressure;altitude;pressure_sealevel;temperature;humidity
58082;BME280;43876;55.576;38.242;2022-09-09T00:03:40;100608.50;;;5.43;75.33
58082;BME280;43876;55.576;38.242;2022-09-09T00:06:26;100609.63;;;5.49;75.25
58082;BME280;43876;55.576;38.242;2022-09-09T00:11:24;100611.50;;;5.53;75.25
58082;BME280;43876;55.576;38.242;2022-09-09T00:13:57;100614.25;;;5.58;74.62
58082;BME280;43876;55.576;38.242;2022-09-09T00:16:27;100609.91;;;5.57;75.18
58082;BME280;43876;55.576;38.242;2022-09-09T00:19:00;100619.34;;;5.57;75.41
58082;BME280;43876;55.576;38.242;2022-09-09T00:21:47;100627.28;;;5.61;75.30
58082;BME280;43876;55.576;38.242;2022-09-09T00:24:24;100626.47;;;5.62;75.27
58082;BME280;43876;55.576;38.242;2022-09-09T00:27:00;100627.41;;;5.64;75.26
58082;BME280;43876;55.576;38.242;2022-09-09T00:32:04;100625.94;;;5.71;74.81
58082;BME280;43876;55.576;38.242;2022-09-09T00:35:23;100622.56;;;5.73;74.94
58082;BME280;43876;55.576;38.242;2022-09-09T00:37:34;100628.72;;;5.77;74.57
58082;BME280;43876;55.576;38.242;2022-09-09T00:40:31;100630.59;;;5.81;75.01
58082;BME280;43876;55.576;38.242;2022-09-09T00:48:15;100625.63;;;5.87;74.66
58082;BME280;43876;55.576;38.242;2022-09-09T00:53:27;100629.88;;;5.85;74.33
58082;BME280;43876;55.576;38.242;2022-09-09T00:58:27;100641.63;;;5.75;74.87
58082;BME280;43876;55.576;38.242;2022-09-09T01:01:00;100638.09;;;5.73;75.07
58082;BME280;43876;55.576;38.242;2022-09-09T01:06:10;100642.63;;;5.79;74.94
58082;BME280;43876;55.576;38.242;2022-09-09T01:11:27;100637.59;;;5.84;75.04
58082;BME280;43876;55.576;38.242;2022-09-09T01:14:01;100648.03;;;5.85;75.29
58082;BME280;43876;55.576;38.242;2022-09-09T01:16:33;100642.78;;;5.84;74.91
58082;BME280;43876;55.576;38.242;2022-09-09T01:19:01;100646.25;;;5.84;75.25
58082;BME280;43876;55.576;38.242;2022-09-09T01:21:38;100654.09;;;5.86;75.14
58082;BME280;43876;55.576;38.242;2022-09-09T01:27:03;100657.72;;;5.91;75.14
58082;BME280;43876;55.576;38.242;2022-09-09T01:29:32;100658.59;;;5.91;75.19
58082;BME280;43876;55.576;38.242;2022-09-09T01:32:00;100659.50;;;5.92;74.73
58082;BME280;43876;55.576;38.242;2022-09-09T01:34:30;100662.03;;;5.90;75.14
58082;BME280;43876;55.576;38.242;2022-09-09T01:39:26;100667.22;;;5.90;75.12
58082;BME280;43876;55.576;38.242;2022-09-09T01:42:07;100668.16;;;5.92;74.97
58082;BME280;43876;55.576;38.242;2022-09-09T01:44:35;100671.53;;;5.90;74.82
58082;BME280;43876;55.576;38.242;2022-09-09T01:47:03;100676.75;;;5.91;75.21
58082;BME280;43876;55.576;38.242;2022-09-09T01:49:31;100676.91;;;5.94;74.79
58082;BME280;43876;55.576;38.242;2022-09-09T01:52:06;100677.78;;;5.95;75.07
58082;BME280;43876;55.576;38.242;2022-09-09T01:54:37;100675.94;;;5.92;74.68
58082;BME280;43876;55.576;38.242;2022-09-09T01:59:53;100676.72;;;5.90;74.77
58082;BME280;43876;55.576;38.242;2022-09-09T02:02:44;100677.59;;;5.90;74.95
58082;BME280;43876;55.576;38.242;2022-09-09T02:08:00;100683.84;;;5.95;75.05
58082;BME280;43876;55.576;38.242;2022-09-09T02:13:24;100680.25;;;5.92;75.09
58082;BME280;43876;55.576;38.242;2022-09-09T02:15:53;100679.25;;;5.88;75.00
58082;BME280;43876;55.576;38.242;2022-09-09T02:21:05;100680.59;;;5.77;75.27
58082;BME280;43876;55.576;38.242;2022-09-09T02:23:33;100678.78;;;5.74;75.49
58082;BME280;43876;55.576;38.242;2022-09-09T02:26:06;100688.91;;;5.68;75.21
58082;BME280;43876;55.576;38.242;2022-09-09T02:28:34;100692.09;;;5.61;75.83
58082;BME280;43876;55.576;38.242;2022-09-09T02:31:01;100695.38;;;5.56;76.17
58082;BME280;43876;55.576;38.242;2022-09-09T02:33:40;100700.38;;;5.51;75.94
58082;BME280;43876;55.576;38.242;2022-09-09T02:36:08;100693.19;;;5.44;75.88
58082;BME280;43876;55.576;38.242;2022-09-09T02:38:40;100711.16;;;5.39;75.95
58082;BME280;43876;55.576;38.242;2022-09-09T02:41:12;100711.69;;;5.30;76.55
58082;BME280;43876;55.576;38.242;2022-09-09T02:43:39;100710.50;;;5.22;76.35
58082;BME280;43876;55.576;38.242;2022-09-09T02:56:31;100742.81;;;5.09;76.65
58082;BME280;43876;55.576;38.242;2022-09-09T02:59:03;100742.81;;;5.09;77.01
58082;BME280;43876;55.576;38.242;2022-09-09T03:01:32;100747.19;;;5.10;76.81
58082;BME280;43876;55.576;38.242;2022-09-09T03:03:59;100747.28;;;5.13;77.27
58082;BME280;43876;55.576;38.242;2022-09-09T03:06:26;100749.31;;;5.21;76.43
58082;BME280;43876;55.576;38.242;2022-09-09T03:09:02;100754.53;;;5.22;76.54
58082;BME280;43876;55.576;38.242;2022-09-09T03:11:29;100749.53;;;5.27;76.60
58082;BME280;43876;55.576;38.242;2022-09-09T03:13:57;100751.31;;;5.28;76.96
58082;BME280;43876;55.576;38.242;2022-09-09T03:16:26;100747.00;;;5.28;76.57
58082;BME280;43876;55.576;38.242;2022-09-09T03:18:54;100753.06;;;5.29;76.60
58082;BME280;43876;55.576;38.242;2022-09-09T03:21:21;100755.72;;;5.30;76.41
58082;BME280;43876;55.576;38.242;2022-09-09T03:23:48;100750.56;;;5.30;76.46
58082;BME280;43876;55.576;38.242;2022-09-09T03:26:15;100754.78;;;5.28;76.88
58082;BME280;43876;55.576;38.242;2022-09-09T03:28:45;100755.81;;;5.32;76.50
58082;BME280;43876;55.576;38.242;2022-09-09T03:31:15;100750.69;;;5.33;76.76
58082;BME280;43876;55.576;38.242;2022-09-09T03:33:43;100760.13;;;5.33;77.00
58082;BME280;43876;55.576;38.242;2022-09-09T03:36:13;100760.13;;;5.33;76.85
58082;BME280;43876;55.576;38.242;2022-09-09T03:38:40;100756.59;;;5.31;76.72
58082;BME280;43876;55.576;38.242;2022-09-09T03:41:07;100761.94;;;5.34;76.99
58082;BME280;43876;55.576;38.242;2022-09-09T03:43:36;100767.38;;;5.42;76.72
58082;BME280;43876;55.576;38.242;2022-09-09T03:46:04;100767.94;;;5.56;76.63
58082;BME280;43876;55.576;38.242;2022-09-09T03:48:31;100773.59;;;5.68;76.93
58082;BME280;43876;55.576;38.242;2022-09-09T03:50:59;100763.72;;;5.82;76.61
58082;BME280;43876;55.576;38.242;2022-09-09T03:53:29;100767.84;;;5.99;76.09
58082;BME280;43876;55.576;38.242;2022-09-09T03:56:00;100768.31;;;6.13;75.83
58082;BME280;43876;55.576;38.242;2022-09-09T03:58:29;100769.88;;;6.32;75.28
58082;BME280;43876;55.576;38.242;2022-09-09T04:01:02;100773.91;;;6.49;75.14
58082;BME280;43876;55.576;38.242;2022-09-09T04:03:30;100777.44;;;6.75;75.00
58082;BME280;43876;55.576;38.242;2022-09-09T04:05:57;100777.19;;;6.95;74.70
58082;BME280;43876;55.576;38.242;2022-09-09T04:08:27;100782.38;;;7.22;74.00
58082;BME280;43876;55.576;38.242;2022-09-09T04:10:54;100776.00;;;7.39;73.55
58082;BME280;43876;55.576;38.242;2022-09-09T04:13:26;100782.31;;;7.48;72.99
58082;BME280;43876;55.576;38.242;2022-09-09T04:15:56;100781.84;;;7.61;72.88
58082;BME280;43876;55.576;38.242;2022-09-09T04:18:23;100783.13;;;7.75;72.58
58082;BME280;43876;55.576;38.242;2022-09-09T04:20:52;100778.47;;;7.94;72.20
58082;BME280;43876;55.576;38.242;2022-09-09T04:23:22;100782.25;;;8.05;72.22
58082;BME280;43876;55.576;38.242;2022-09-09T04:25:51;100782.81;;;8.25;71.98
58082;BME280;43876;55.576;38.242;2022-09-09T04:28:19;100780.78;;;8.45;71.38
58082;BME280;43876;55.576;38.242;2022-09-09T04:30:47;100782.03;;;8.59;71.07
58082;BME280;43876;55.576;38.242;2022-09-09T04:33:14;100784.09;;;8.73;70.55
58082;BME280;43876;55.576;38.242;2022-09-09T04:35:48;100790.59;;;8.89;70.69
58082;BME280;43876;55.576;38.242;2022-09-09T04:38:17;100790.59;;;8.89;69.77
58082;BME280;43876;55.576;38.242;2022-09-09T04:40:48;100792.53;;;8.97;69.38
58082;BME280;43876;55.576;38.242;2022-09-09T04:43:15;100792.16;;;9.17;68.95
58082;BME280;43876;55.576;38.242;2022-09-09T04:45:43;100791.53;;;9.27;68.13
58082;BME280;43876;55.576;38.242;2022-09-09T04:48:10;100791.53;;;9.27;68.77
58082;BME280;43876;55.576;38.242;2022-09-09T04:50:37;100792.66;;;9.38;68.76
58082;BME280;43876;55.576;38.242;2022-09-09T04:53:04;100806.00;;;9.52;68.53
58082;BME280;43876;55.576;38.242;2022-09-09T04:55:34;100802.59;;;9.56;67.36
58082;BME280;43876;55.576;38.242;2022-09-09T04:58:05;100809.94;;;9.73;67.37
58082;BME280;43876;55.576;38.242;2022-09-09T05:00:32;100802.47;;;9.90;66.70
58082;BME280;43876;55.576;38.242;2022-09-09T05:03:02;100805.13;;;9.93;66.81
58082;BME280;43876;55.576;38.242;2022-09-09T05:05:32;100800.09;;;10.02;66.69
58082;BME280;43876;55.576;38.242;2022-09-09T05:08:01;100807.22;;;10.11;65.91
58082;BME280;43876;55.576;38.242;2022-09-09T05:10:29;100805.53;;;10.13;66.29
58082;BME280;43876;55.576;38.242;2022-09-09T05:12:57;100808.41;;;10.25;65.34
58082;BME280;43876;55.576;38.242;2022-09-09T05:15:27;100799.94;;;10.35;64.81
58082;BME280;43876;55.576;38.242;2022-09-09T05:18:00;100809.59;;;10.41;65.03
58082;BME280;43876;55.576;38.242;2022-09-09T05:20:30;100813.31;;;10.52;63.70
58082;BME280;43876;55.576;38.242;2022-09-09T05:22:58;100819.41;;;10.53;64.30
58082;BME280;43876;55.576;38.242;2022-09-09T05:25:28;100816.84;;;10.54;64.00
58082;BME280;43876;55.576;38.242;2022-09-09T05:27:55;100826.00;;;10.34;61.88
58082;BME280;43876;55.576;38.242;2022-09-09T05:30:22;100815.56;;;10.34;62.77
58082;BME280;43876;55.576;38.242;2022-09-09T05:32:55;100817.47;;;10.42;62.37
58082;BME280;43876;55.576;38.242;2022-09-09T05:35:22;100816.72;;;10.48;62.90
58082;BME280;43876;55.576;38.242;2022-09-09T05:37:49;100822.84;;;10.50;62.32
58082;BME280;43876;55.576;38.242;2022-09-09T05:40:16;100821.13;;;10.51;62.10
58082;BME280;43876;55.576;38.242;2022-09-09T05:42:44;100817.63;;;10.50;62.14
58082;BME280;43876;55.576;38.242;2022-09-09T05:45:11;100818.53;;;10.54;61.77
58082;BME280;43876;55.576;38.242;2022-09-09T05:47:38;100821.94;;;10.48;61.45
58082;BME280;43876;55.576;38.242;2022-09-09T05:50:08;100828.97;;;10.51;61.64
58082;BME280;43876;55.576;38.242;2022-09-09T05:52:35;100820.22;;;10.49;61.28
58082;BME280;43876;55.576;38.242;2022-09-09T05:55:07;100830.81;;;10.58;61.34
58082;BME280;43876;55.576;38.242;2022-09-09T05:57:35;100832.56;;;10.57;61.05
58082;BME280;43876;55.576;38.242;2022-09-09T06:00:03;100830.91;;;10.61;60.51
58082;BME280;43876;55.576;38.242;2022-09-09T06:02:39;100834.38;;;10.61;61.34
58082;BME280;43876;55.576;38.242;2022-09-09T06:05:11;100832.84;;;10.73;60.69
58082;BME280;43876;55.576;38.242;2022-09-09T06:07:39;100836.50;;;10.84;60.47
58082;BME280;43876;55.576;38.242;2022-09-09T06:10:09;100840.16;;;10.91;60.42
58082;BME280;43876;55.576;38.242;2022-09-09T06:12:38;100839.31;;;10.95;60.43
58082;BME280;43876;55.576;38.242;2022-09-09T06:15:07;100837.47;;;10.88;59.66
58082;BME280;43876;55.576;38.242;2022-09-09T06:17:35;100846.28;;;10.93;59.62
58082;BME280;43876;55.576;38.242;2022-09-09T06:20:02;100841.81;;;10.87;58.98
58082;BME280;43876;55.576;38.242;2022-09-09T06:22:31;100852.31;;;10.89;58.90
58082;BME280;43876;55.576;38.242;2022-09-09T06:24:59;100844.94;;;10.68;58.09
58082;BME280;43876;55.576;38.242;2022-09-09T06:27:29;100846.78;;;10.73;58.20
58082;BME280;43876;55.576;38.242;2022-09-09T06:29:55;100841.63;;;10.76;57.33
58082;BME280;43876;55.576;38.242;2022-09-09T06:32:22;100853.09;;;10.86;56.90
58082;BME280;43876;55.576;38.242;2022-09-09T06:34:49;100847.97;;;10.89;57.30
58082;BME280;43876;55.576;38.242;2022-09-09T06:37:16;100849.78;;;10.95;55.61
58082;BME280;43876;55.576;38.242;2022-09-09T06:39:47;100850.41;;;10.80;54.28
58082;BME280;43876;55.576;38.242;2022-09-09T06:42:15;100848.66;;;10.80;54.83
58082;BME280;43876;55.576;38.242;2022-09-09T06:44:48;100850.47;;;10.83;53.76
58082;BME280;43876;55.576;38.242;2022-09-09T06:47:24;100854.13;;;10.93;54.10
58082;BME280;43876;55.576;38.242;2022-09-09T06:49:52;100856.28;;;11.17;53.21
58082;BME280;43876;55.576;38.242;2022-09-09T06:52:19;100853.53;;;11.09;52.90
58082;BME280;43876;55.576;38.242;2022-09-09T06:54:47;100853.66;;;11.18;53.06
58082;BME280;43876;55.576;38.242;2022-09-09T06:57:15;100863.63;;;11.41;50.56
58082;BME280;43876;55.576;38.242;2022-09-09T07:00:02;100861.00;;;11.39;50.04
58082;BME280;43876;55.576;38.242;2022-09-09T07:02:30;100872.50;;;11.51;49.47
58082;BME280;43876;55.576;38.242;2022-09-09T07:04:57;100862.91;;;11.50;47.44
58082;BME280;43876;55.576;38.242;2022-09-09T07:07:25;100867.19;;;11.46;47.77
58082;BME280;43876;55.576;38.242;2022-09-09T07:09:59;100865.66;;;11.57;47.09
58082;BME280;43876;55.576;38.242;2022-09-09T07:12:28;100867.53;;;11.67;47.01
58082;BME280;43876;55.576;38.242;2022-09-09T07:14:59;100858.84;;;11.70;46.37
58082;BME280;43876;55.576;38.242;2022-09-09T07:17:30;100867.94;;;11.92;46.70
58082;BME280;43876;55.576;38.242;2022-09-09T07:19:58;100865.63;;;12.17;45.60
58082;BME280;43876;55.576;38.242;2022-09-09T07:22:27;100877.06;;;12.22;46.22
58082;BME280;43876;55.576;38.242;2022-09-09T07:25:00;100878.50;;;11.98;45.85
58082;BME280;43876;55.576;38.242;2022-09-09T07:27:29;100888.47;;;11.67;44.36
58082;BME280;43876;55.576;38.242;2022-09-09T07:29:57;100885.56;;;11.51;45.60
58082;BME280;43876;55.576;38.242;2022-09-09T07:32:25;100877.97;;;11.64;46.08
58082;BME280;43876;55.576;38.242;2022-09-09T07:34:57;100889.91;;;12.06;45.61
58082;BME280;43876;55.576;38.242;2022-09-09T07:37:28;100887.81;;;12.43;44.81
58082;BME280;43876;55.576;38.242;2022-09-09T07:39:56;100883.00;;;12.83;44.27
58082;BME280;43876;55.576;38.242;2022-09-09T07:42:30;100884.44;;;13.42;44.16
58082;BME280;43876;55.576;38.242;2022-09-09T07:45:01;100883.06;;;14.00;43.04
58082;BME280;43876;55.576;38.242;2022-09-09T07:47:28;100896.97;;;13.80;43.13
58082;BME280;43876;55.576;38.242;2022-09-09T07:49:55;100892.41;;;13.56;44.56
58082;BME280;43876;55.576;38.242;2022-09-09T07:52:29;100894.00;;;13.37;44.24
58082;BME280;43876;55.576;38.242;2022-09-09T07:54:59;100890.41;;;13.27;45.02
58082;BME280;43876;55.576;38.242;2022-09-09T07:57:30;100889.53;;;13.25;45.36
58082;BME280;43876;55.576;38.242;2022-09-09T07:59:57;100894.72;;;13.21;45.39
58082;BME280;43876;55.576;38.242;2022-09-09T08:02:24;100900.16;;;13.36;45.43
58082;BME280;43876;55.576;38.242;2022-09-09T08:04:52;100899.47;;;13.63;45.30
58082;BME280;43876;55.576;38.242;2022-09-09T08:07:20;100898.72;;;13.80;45.17
58082;BME280;43876;55.576;38.242;2022-09-09T08:09:52;100902.09;;;13.65;44.69
58082;BME280;43876;55.576;38.242;2022-09-09T08:12:25;100911.34;;;13.21;44.42
58082;BME280;43876;55.576;38.242;2022-09-09T08:14:52;100898.56;;;12.68;44.73
58082;BME280;43876;55.576;38.242;2022-09-09T08:17:23;100905.53;;;12.66;45.09
58082;BME280;43876;55.576;38.242;2022-09-09T08:19:51;100901.63;;;13.08;43.83
58082;BME280;43876;55.576;38.242;2022-09-09T08:22:22;100901.25;;;13.67;42.93
58082;BME280;43876;55.576;38.242;2022-09-09T08:24:49;100903.38;;;14.28;41.91
58082;BME280;43876;55.576;38.242;2022-09-09T08:27:17;100905.00;;;14.05;41.04
58082;BME280;43876;55.576;38.242;2022-09-09T08:29:43;100911.03;;;13.85;41.86
58082;BME280;43876;55.576;38.242;2022-09-09T08:32:11;100917.94;;;13.72;42.54
58082;BME280;43876;55.576;38.242;2022-09-09T08:34:38;100915.09;;;13.48;42.55
58082;BME280;43876;55.576;38.242;2022-09-09T08:37:18;100916.63;;;13.23;43.83
58082;BME280;43876;55.576;38.242;2022-09-09T08:39:46;100906.06;;;13.17;43.88
58082;BME280;43876;55.576;38.242;2022-09-09T08:42:23;100907.69;;;13.04;44.13
58082;BME280;43876;55.576;38.242;2022-09-09T08:55:37;100918.19;;;14.14;41.92
58082;BME280;43876;55.576;38.242;2022-09-09T08:58:11;100920.00;;;14.26;41.70
58082;BME280;43876;55.576;38.242;2022-09-09T09:00:49;100903.94;;;13.75;41.37
58082;BME280;43876;55.576;38.242;2022-09-09T09:06:18;100907.69;;;13.04;42.92
58082;BME280;43876;55.576;38.242;2022-09-09T09:09:00;100914.75;;;13.14;43.15
58082;BME280;43876;55.576;38.242;2022-09-09T09:14:35;100904.69;;;13.60;41.46
58082;BME280;43876;55.576;38.242;2022-09-09T09:17:11;100905.81;;;13.98;41.20
58082;BME280;43876;55.576;38.242;2022-09-09T09:19:40;100896.44;;;14.49;40.32
58082;BME280;43876;55.576;38.242;2022-09-09T09:22:21;100897.31;;;14.49;39.02
58082;BME280;43876;55.576;38.242;2022-09-09T09:25:19;100908.63;;;14.30;39.98
58082;BME280;43876;55.576;38.242;2022-09-09T09:28:02;100919.97;;;14.20;40.77
58082;BME280;43876;55.576;38.242;2022-09-09T09:33:22;100923.28;;;13.91;39.77
58082;BME280;43876;55.576;38.242;2022-09-09T09:35:51;100917.91;;;13.71;40.41
58082;BME280;43876;55.576;38.242;2022-09-09T09:38:21;100929.44;;;13.90;40.45
58082;BME280;43876;55.576;38.242;2022-09-09T09:41:09;100912.56;;;13.56;41.02
58082;BME280;43876;55.576;38.242;2022-09-09T09:43:37;100917.75;;;13.49;41.29
58082;BME280;43876;55.576;38.242;2022-09-09T09:46:20;100916.09;;;13.65;41.04
58082;BME280;43876;55.576;38.242;2022-09-09T09:49:03;100913.81;;;14.11;40.22
58082;BME280;43876;55.576;38.242;2022-09-09T09:51:33;100912.06;;;14.17;40.24
58082;BME280;43876;55.576;38.242;2022-09-09T09:56:36;100925.16;;;14.10;40.37
58082;BME280;43876;55.576;38.242;2022-09-09T09:59:18;100921.59;;;13.96;40.65
58082;BME280;43876;55.576;38.242;2022-09-09T10:04:38;100932.59;;;13.47;40.74
58082;BME280;43876;55.576;38.242;2022-09-09T10:07:34;100921.28;;;13.56;40.87
58082;BME280;43876;55.576;38.242;2022-09-09T10:10:01;100924.28;;;14.05;40.18
58082;BME280;43876;55.576;38.242;2022-09-09T10:23:20;100916.81;;;15.08;39.11
58082;BME280;43876;55.576;38.242;2022-09-09T10:31:21;100914.19;;;15.22;39.05
58082;BME280;43876;55.576;38.242;2022-09-09T10:34:05;100908.94;;;15.51;38.20
58082;BME280;43876;55.576;38.242;2022-09-09T10:36:39;100909.78;;;15.66;37.91
58082;BME280;43876;55.576;38.242;2022-09-09T10:44:14;100913.13;;;14.52;38.46
58082;BME280;43876;55.576;38.242;2022-09-09T10:47:00;100923.63;;;14.48;38.59
58082;BME280;43876;55.576;38.242;2022-09-09T10:49:57;100928.91;;;14.56;38.25
58082;BME280;43876;55.576;38.242;2022-09-09T10:55:18;100914.22;;;15.36;37.68
58082;BME280;43876;55.576;38.242;2022-09-09T10:57:47;100910.72;;;15.77;37.72
58082;BME280;43876;55.576;38.242;2022-09-09T11:00:19;100909.75;;;16.15;37.42
58082;BME280;43876;55.576;38.242;2022-09-09T11:02:57;100914.13;;;16.13;37.05
58082;BME280;43876;55.576;38.242;2022-09-09T11:10:41;100916.81;;;15.53;36.57
58082;BME280;43876;55.576;38.242;2022-09-09T11:13:11;100915.09;;;15.38;36.39
58082;BME280;43876;55.576;38.242;2022-09-09T11:15:43;100905.41;;;15.59;36.56
58082;BME280;43876;55.576;38.242;2022-09-09T11:18:13;100915.06;;;15.40;36.58
58082;BME280;43876;55.576;38.242;2022-09-09T11:20:40;100912.44;;;15.15;36.76
58082;BME280;43876;55.576;38.242;2022-09-09T11:26:12;100912.28;;;14.58;37.53
58082;BME280;43876;55.576;38.242;2022-09-09T11:31:15;100917.72;;;15.17;37.19
58082;BME280;43876;55.576;38.242;2022-09-09T11:36:47;100908.66;;;14.33;37.43
58082;BME280;43876;55.576;38.242;2022-09-09T11:44:41;100919.06;;;14.16;38.24
58082;BME280;43876;55.576;38.242;2022-09-09T11:47:19;100928.59;;;14.00;38.54
58082;BME280;43876;55.576;38.242;2022-09-09T11:49:46;100918.97;;;13.98;38.74
58082;BME280;43876;55.576;38.242;2022-09-09T11:52:20;100920.81;;;14.14;38.81
58082;BME280;43876;55.576;38.242;2022-09-09T11:54:48;100914.91;;;14.55;38.48
58082;BME280;43876;55.576;38.242;2022-09-09T11:57:32;100905.38;;;14.86;37.89
58082;BME280;43876;55.576;38.242;2022-09-09T12:00:02;100902.78;;;15.15;37.32
58082;BME280;43876;55.576;38.242;2022-09-09T12:02:47;100901.91;;;15.53;36.73
58082;BME280;43876;55.576;38.242;2022-09-09T12:05:15;100903.69;;;15.71;36.41
58082;BME280;43876;55.576;38.242;2022-09-09T12:08:00;100909.81;;;15.40;35.66
58082;BME280;43876;55.576;38.242;2022-09-09T12:10:30;100922.84;;;14.75;36.29
58082;BME280;43876;55.576;38.242;2022-09-09T12:13:19;100921.78;;;14.34;37.28
58082;BME280;43876;55.576;38.242;2022-09-09T12:15:47;100915.56;;;14.16;37.81
58082;BME280;43876;55.576;38.242;2022-09-09T12:18:21;100915.63;;;14.26;37.59
58082;BME280;43876;55.576;38.242;2022-09-09T12:20:54;100904.34;;;14.46;37.34
58082;BME280;43876;55.576;38.242;2022-09-09T12:25:57;100909.47;;;14.21;38.11
58082;BME280;43876;55.576;38.242;2022-09-09T12:28:39;100914.50;;;13.84;38.41
58082;BME280;43876;55.576;38.242;2022-09-09T12:31:21;100913.44;;;13.59;38.74
58082;BME280;43876;55.576;38.242;2022-09-09T12:33:50;100924.69;;;13.43;39.50
58082;BME280;43876;55.576;38.242;2022-09-09T12:36:24;100911.47;;;13.30;39.91
58082;BME280;43876;55.576;38.242;2022-09-09T12:38:53;100911.28;;;13.15;40.19
58082;BME280;43876;55.576;38.242;2022-09-09T12:41:24;100911.19;;;13.07;40.59
58082;BME280;43876;55.576;38.242;2022-09-09T12:43:51;100910.25;;;12.98;40.85
58082;BME280;43876;55.576;38.242;2022-09-09T12:46:40;100910.28;;;12.99;40.96
58082;BME280;43876;55.576;38.242;2022-09-09T12:49:24;100914.78;;;13.13;41.04
58082;BME280;43876;55.576;38.242;2022-09-09T12:51:52;100914.25;;;13.49;40.40
58082;BME280;43876;55.576;38.242;2022-09-09T12:54:18;100911.75;;;13.67;39.81
58082;BME280;43876;55.576;38.242;2022-09-09T12:56:46;100911.63;;;13.50;39.13
58082;BME280;43876;55.576;38.242;2022-09-09T12:59:26;100909.72;;;13.29;38.97
58082;BME280;43876;55.576;38.242;2022-09-09T13:01:57;100908.63;;;13.14;39.37
58082;BME280;43876;55.576;38.242;2022-09-09T13:04:25;100914.69;;;13.05;39.98
58082;BME280;43876;55.576;38.242;2022-09-09T13:06:52;100911.22;;;13.06;40.06
58082;BME280;43876;55.576;38.242;2022-09-09T13:09:19;100919.97;;;13.09;40.39
58082;BME280;43876;55.576;38.242;2022-09-09T13:11:47;100911.19;;;13.07;40.55
58082;BME280;43876;55.576;38.242;2022-09-09T13:14:50;100917.50;;;13.23;40.36
58082;BME280;43876;55.576;38.242;2022-09-09T13:17:23;100915.94;;;13.41;39.79
58082;BME280;43876;55.576;38.242;2022-09-09T13:19:51;100920.34;;;13.48;39.42
58082;BME280;43876;55.576;38.242;2022-09-09T13:22:20;100920.25;;;13.34;39.85
58082;BME280;43876;55.576;38.242;2022-09-09T13:24:48;100915.81;;;13.28;39.97
58082;BME280;43876;55.576;38.242;2022-09-09T13:27:51;100921.84;;;13.21;40.27
58082;BME280;43876;55.576;38.242;2022-09-09T13:30:25;100917.25;;;12.97;40.10
58082;BME280;43876;55.576;38.242;2022-09-09T13:35:47;100915.13;;;12.65;41.13
58082;BME280;43876;55.576;38.242;2022-09-09T13:38:16;100911.63;;;12.63;41.33
58082;BME280;43876;55.576;38.242;2022-09-09T13:40:56;100911.50;;;12.53;41.42
58082;BME280;43876;55.576;38.242;2022-09-09T13:43:24;100919.28;;;12.46;41.65
58082;BME280;43876;55.576;38.242;2022-09-09T13:45:56;100925.44;;;12.52;41.65
58082;BME280;43876;55.576;38.242;2022-09-09T13:48:24;100915.91;;;12.57;41.69
58082;BME280;43876;55.576;38.242;2022-09-09T13:50:56;100913.38;;;12.66;41.63
58082;BME280;43876;55.576;38.242;2022-09-09T13:53:23;100910.78;;;12.66;41.46
58082;BME280;43876;55.576;38.242;2022-09-09T13:55:50;100908.91;;;12.56;41.23
58082;BME280;43876;55.576;38.242;2022-09-09T13:58:19;100916.72;;;12.53;41.50
58082;BME280;43876;55.576;38.242;2022-09-09T14:00:46;100912.31;;;12.48;41.74
58082;BME280;43876;55.576;38.242;2022-09-09T14:03:13;100913.94;;;12.40;41.86
58082;BME280;43876;55.576;38.242;2022-09-09T14:05:40;100914.69;;;12.28;42.37
58082;BME280;43876;55.576;38.242;2022-09-09T14:08:10;100920.69;;;12.21;42.28
58082;BME280;43876;55.576;38.242;2022-09-09T14:10:41;100912.81;;;12.21;42.36
58082;BME280;43876;55.576;38.242;2022-09-09T14:13:08;100919.94;;;12.28;42.25
58082;BME280;43876;55.576;38.242;2022-09-09T14:15:35;100911.31;;;12.40;41.97
58082;BME280;43876;55.576;38.242;2022-09-09T14:18:02;100916.78;;;12.57;41.95
58082;BME280;43876;55.576;38.242;2022-09-09T14:20:29;100918.75;;;12.77;41.48
58082;BME280;43876;55.576;38.242;2022-09-09T14:22:56;100912.81;;;12.91;40.96
58082;BME280;43876;55.576;38.242;2022-09-09T14:25:29;100920.84;;;13.08;41.08
58082;BME280;43876;55.576;38.242;2022-09-09T14:27:56;100919.19;;;13.20;40.77
58082;BME280;43876;55.576;38.242;2022-09-09T14:30:23;100910.47;;;13.22;40.67
58082;BME280;43876;55.576;38.242;2022-09-09T14:32:50;100921.88;;;13.26;40.95
58082;BME280;43876;55.576;38.242;2022-09-09T14:35:16;100920.97;;;13.21;40.84
58082;BME280;43876;55.576;38.242;2022-09-09T14:37:44;100919.94;;;13.05;40.83
58082;BME280;43876;55.576;38.242;2022-09-09T14:40:11;100918.78;;;12.80;41.36
58082;BME280;43876;55.576;38.242;2022-09-09T14:42:38;100921.94;;;12.51;41.41
58082;BME280;43876;55.576;38.242;2022-09-09T14:45:06;100925.16;;;12.30;42.02
58082;BME280;43876;55.576;38.242;2022-09-09T14:47:59;100924.09;;;12.14;42.29
58082;BME280;43876;55.576;38.242;2022-09-09T14:50:26;100916.09;;;12.03;42.65
58082;BME280;43876;55.576;38.242;2022-09-09T14:52:53;100924.69;;;11.95;42.80
58082;BME280;43876;55.576;38.242;2022-09-09T14:55:26;100918.47;;;11.88;43.06
58082;BME280;43876;55.576;38.242;2022-09-09T14:57:55;100924.53;;;11.85;43.41
58082;BME280;43876;55.576;38.242;2022-09-09T15:00:22;100922.75;;;11.84;43.07
58082;BME280;43876;55.576;38.242;2022-09-09T15:02:53;100922.72;;;11.81;43.44
58082;BME280;43876;55.576;38.242;2022-09-09T15:05:21;100921.72;;;11.73;43.61
58082;BME280;43876;55.576;38.242;2022-09-09T15:07:48;100918.97;;;11.64;43.69